createdAt,value
2023-06-29T00:01:49.548Z,12.70
2023-06-29T00:04:36.770Z,13.13
2023-06-29T00:07:26.321Z,13.07
2023-06-29T00:10:14.709Z,12.45
2023-06-29T00:13:03.241Z,13.27
2023-06-29T00:15:50.774Z,12.50
2023-06-29T00:18:38.133Z,14.00
2023-06-29T00:21:29.389Z,13.23
2023-06-29T00:24:16.620Z,14.32
2023-06-29T00:27:04.858Z,13.88
2023-06-29T00:29:53.621Z,13.90
2023-06-29T00:32:40.921Z,13.80
2023-06-29T00:35:28.183Z,14.38
2023-06-29T00:38:15.625Z,14.02
2023-06-29T00:41:02.957Z,14.13
2023-06-29T00:43:50.196Z,14.32
2023-06-29T00:46:38.805Z,13.73
2023-06-29T00:49:26.397Z,14.75
2023-06-29T00:52:13.702Z,14.65
2023-06-29T00:55:01.127Z,14.60
2023-06-29T00:57:48.458Z,14.57
2023-06-29T01:00:35.918Z,13.48
2023-06-29T01:03:29.262Z,14.50
2023-06-29T01:06:23.066Z,13.75
2023-06-29T01:09:13.925Z,14.05
2023-06-29T01:12:04.513Z,13.77
2023-06-29T01:14:53.549Z,13.60
2023-06-29T01:17:47.821Z,14.30
2023-06-29T01:20:38.623Z,13.95
2023-06-29T01:23:29.114Z,14.43
2023-06-29T01:26:18.788Z,14.38
2023-06-29T01:29:06.416Z,14.02
2023-06-29T01:32:01.175Z,13.88
2023-06-29T01:34:49.078Z,13.40
2023-06-29T01:37:46.929Z,13.60
2023-06-29T01:40:38.526Z,13.60
2023-06-29T01:43:29.792Z,14.10
2023-06-29T01:46:19.893Z,13.80
2023-06-29T01:49:08.478Z,14.27
2023-06-29T01:51:56.059Z,13.75
2023-06-29T01:54:43.367Z,13.80
2023-06-29T01:57:30.708Z,13.93
2023-06-29T02:00:22.065Z,14.13
2023-06-29T02:03:13.018Z,14.10
2023-06-29T02:06:00.477Z,14.63
2023-06-29T02:08:47.783Z,13.65
2023-06-29T02:11:35.011Z,14.95
2023-06-29T02:14:22.271Z,14.75
2023-06-29T02:17:11.188Z,13.88
2023-06-29T02:19:59.980Z,13.85
2023-06-29T02:22:47.432Z,13.77
2023-06-29T02:25:34.674Z,13.98
2023-06-29T02:28:21.842Z,13.25
2023-06-29T02:31:13.777Z,13.13
2023-06-29T02:34:02.529Z,14.02
2023-06-29T02:36:49.892Z,12.82
2023-06-29T02:39:37.178Z,13.52
2023-06-29T02:42:24.609Z,12.77
2023-06-29T02:45:11.942Z,12.25
2023-06-29T02:48:00.237Z,13.38
2023-06-29T02:50:49.272Z,13.57
2023-06-29T02:53:36.930Z,13.68
2023-06-29T02:56:24.159Z,13.23
2023-06-29T02:59:11.457Z,13.85
2023-06-29T03:01:58.695Z,13.93
2023-06-29T03:04:45.929Z,13.40
2023-06-29T03:07:35.053Z,13.55
2023-06-29T03:10:22.420Z,12.20
2023-06-29T03:13:09.716Z,12.70
2023-06-29T03:16:00.281Z,12.98
2023-06-29T03:18:47.507Z,12.25
2023-06-29T03:21:35.021Z,13.10
2023-06-29T03:24:23.568Z,12.70
2023-06-29T03:27:12.288Z,11.75
2023-06-29T03:29:59.577Z,12.13
2023-06-29T03:32:46.842Z,11.82
2023-06-29T03:35:34.019Z,11.90
2023-06-29T03:38:21.281Z,11.82
2023-06-29T03:41:09.888Z,11.55
2023-06-29T03:43:57.321Z,11.18
2023-06-29T03:46:44.611Z,11.85
2023-06-29T03:49:31.888Z,11.98
2023-06-29T03:52:19.049Z,12.07
2023-06-29T03:55:08.044Z,11.93
2023-06-29T03:57:58.812Z,11.57
2023-06-29T04:00:46.159Z,11.27
2023-06-29T04:03:33.420Z,11.38
2023-06-29T04:06:20.851Z,11.98
2023-06-29T04:09:08.138Z,12.27
2023-06-29T04:11:55.473Z,12.00
2023-06-29T04:14:44.067Z,10.95
2023-06-29T04:17:31.328Z,11.40
2023-06-29T04:20:19.163Z,11.85
2023-06-29T04:23:06.565Z,11.38
2023-06-29T04:25:53.808Z,11.05
2023-06-29T04:28:45.369Z,10.98
2023-06-29T04:31:34.830Z,11.63
2023-06-29T04:34:22.111Z,10.70
2023-06-29T04:37:09.872Z,10.38
2023-06-29T04:39:57.122Z,11.10
2023-06-29T04:42:48.728Z,10.93
2023-06-29T04:45:36.482Z,10.77
2023-06-29T04:48:30.140Z,11.30
2023-06-29T04:51:19.439Z,11.63
2023-06-29T04:54:06.938Z,10.50
2023-06-29T04:56:54.618Z,10.57
2023-06-29T04:59:41.800Z,11.85
2023-06-29T05:02:29.083Z,11.55
2023-06-29T05:05:17.892Z,11.13
2023-06-29T05:08:07.350Z,10.75
2023-06-29T05:10:54.590Z,10.90
2023-06-29T05:13:41.896Z,11.30
2023-06-29T05:16:30.153Z,11.30
2023-06-29T05:19:17.611Z,10.05
2023-06-29T05:22:06.314Z,10.48
2023-06-29T05:24:53.640Z,11.40
2023-06-29T05:27:40.805Z,10.85
2023-06-29T05:30:28.120Z,11.23
2023-06-29T05:33:15.459Z,11.25
2023-06-29T05:36:03.693Z,10.82
2023-06-29T05:38:52.314Z,11.20
2023-06-29T05:41:39.941Z,10.88
2023-06-29T05:44:27.124Z,11.55
2023-06-29T05:47:14.306Z,10.73
2023-06-29T05:50:01.698Z,10.20
2023-06-29T05:52:51.133Z,10.40
2023-06-29T05:55:40.739Z,10.65
2023-06-29T05:58:28.103Z,10.35
2023-06-29T06:01:15.586Z,10.80
2023-06-29T06:04:04.306Z,10.45
2023-06-29T06:06:51.976Z,11.70
2023-06-29T06:09:39.199Z,10.93
2023-06-29T06:12:27.966Z,11.57
2023-06-29T06:15:15.689Z,10.80
2023-06-29T06:18:03.151Z,10.82
2023-06-29T06:20:50.523Z,10.55
2023-06-29T06:23:18.439Z,10.90
2023-06-29T06:25:46.284Z,10.65
2023-06-29T06:28:15.715Z,10.45
2023-06-29T06:30:43.873Z,10.73
2023-06-29T06:33:12.027Z,10.35
2023-06-29T06:35:39.923Z,10.15
2023-06-29T06:38:07.835Z,10.18
2023-06-29T06:40:35.842Z,10.18
2023-06-29T06:43:03.728Z,10.20
2023-06-29T06:45:32.917Z,9.80
2023-06-29T06:48:00.853Z,10.57
2023-06-29T06:50:28.774Z,10.15
2023-06-29T06:52:57.346Z,9.60
2023-06-29T06:55:25.148Z,10.00
2023-06-29T06:57:53.248Z,10.23
2023-06-29T07:00:21.546Z,9.57
2023-06-29T07:02:50.928Z,9.32
2023-06-29T07:05:18.906Z,10.07
2023-06-29T07:07:47.232Z,9.23
2023-06-29T07:10:15.168Z,9.85
2023-06-29T07:12:43.058Z,9.65
2023-06-29T07:15:10.900Z,8.90
2023-06-29T07:17:38.735Z,9.50
2023-06-29T07:25:12.764Z,8.85
2023-06-29T07:27:40.635Z,9.25
2023-06-29T07:30:09.871Z,9.30
2023-06-29T07:32:37.933Z,9.18
2023-06-29T07:35:08.506Z,9.75
2023-06-29T07:37:36.540Z,9.38
2023-06-29T07:40:06.706Z,9.05
2023-06-29T07:42:39.296Z,10.35
2023-06-29T07:45:09.577Z,9.60
2023-06-29T07:47:37.586Z,9.90
2023-06-29T07:50:08.797Z,9.15
2023-06-29T07:52:37.415Z,9.52
2023-06-29T07:55:05.806Z,10.25
2023-06-29T08:00:07.367Z,9.70
2023-06-29T08:02:47.882Z,10.02
2023-06-29T08:07:48.570Z,11.15
2023-06-29T08:10:16.492Z,11.05
2023-06-29T08:12:44.464Z,10.00
2023-06-29T08:15:12.345Z,11.98
2023-06-29T08:17:40.335Z,11.45
2023-06-29T08:20:13.568Z,11.13
2023-06-29T08:22:46.316Z,11.40
2023-06-29T08:28:00.262Z,12.32
2023-06-29T08:30:28.130Z,12.35
2023-06-29T08:32:56.069Z,12.43
2023-06-29T08:35:23.953Z,12.35
2023-06-29T08:37:53.187Z,12.93
2023-06-29T08:40:22.545Z,12.43
2023-06-29T08:42:51.476Z,12.45
2023-06-29T08:45:19.672Z,12.93
2023-06-29T08:47:53.030Z,14.40
2023-06-29T08:50:27.569Z,13.93
2023-06-29T08:55:26.856Z,13.35
2023-06-29T08:57:55.506Z,14.05
2023-06-29T09:00:24.090Z,13.38
2023-06-29T09:02:54.481Z,13.32
2023-06-29T09:05:23.032Z,13.98
2023-06-29T09:07:54.657Z,12.50
2023-06-29T09:10:23.888Z,13.35
2023-06-29T09:12:55.718Z,14.07
2023-06-29T09:15:28.646Z,13.77
2023-06-29T09:17:57.249Z,14.07
2023-06-29T09:20:26.223Z,14.02
2023-06-29T09:22:54.703Z,14.50
2023-06-29T09:25:34.031Z,14.00
2023-06-29T09:28:04.866Z,13.10
2023-06-29T09:30:39.810Z,13.98
2023-06-29T09:33:10.598Z,13.80
2023-06-29T09:35:41.773Z,13.52
2023-06-29T09:38:09.756Z,14.52
2023-06-29T09:40:50.432Z,14.50
2023-06-29T09:43:19.890Z,14.57
2023-06-29T09:45:48.616Z,15.32
2023-06-29T09:51:09.512Z,14.13
2023-06-29T09:54:12.184Z,14.45
2023-06-29T09:56:42.314Z,15.02
2023-06-29T09:59:14.627Z,14.40
2023-06-29T10:01:42.453Z,14.85
2023-06-29T10:04:10.640Z,14.43
2023-06-29T10:06:44.978Z,13.60
2023-06-29T10:09:18.013Z,14.27
2023-06-29T10:11:54.766Z,14.07
2023-06-29T10:14:23.705Z,14.55
2023-06-29T10:16:56.143Z,14.90
2023-06-29T10:19:24.948Z,14.43
2023-06-29T10:22:02.282Z,14.05
2023-06-29T10:24:36.867Z,14.10
2023-06-29T10:27:09.148Z,13.68
2023-06-29T10:29:45.272Z,14.23
2023-06-29T10:32:32.096Z,15.10
2023-06-29T10:35:06.721Z,14.73
2023-06-29T10:37:37.950Z,14.40
2023-06-29T10:40:15.888Z,14.15
2023-06-29T10:42:53.970Z,14.73
2023-06-29T10:45:35.077Z,14.20
2023-06-29T10:48:06.855Z,14.27
2023-06-29T10:50:42.372Z,13.45
2023-06-29T10:53:13.439Z,13.43
2023-06-29T10:55:52.920Z,14.25
2023-06-29T10:58:24.951Z,13.50
2023-06-29T11:00:54.784Z,14.23
2023-06-29T11:03:24.097Z,13.73
2023-06-29T11:05:54.475Z,13.70
2023-06-29T11:08:24.297Z,14.15
2023-06-29T11:10:53.264Z,14.75
2023-06-29T11:13:22.853Z,15.73
2023-06-29T11:15:56.184Z,16.23
2023-06-29T11:18:24.313Z,14.93
2023-06-29T11:20:52.197Z,14.82
2023-06-29T11:23:20.124Z,14.40
2023-06-29T11:25:47.928Z,14.95
2023-06-29T11:28:17.023Z,13.65
2023-06-29T11:36:29.197Z,11.63
2023-06-29T11:41:37.656Z,11.95
2023-06-29T11:44:06.332Z,13.20
2023-06-29T11:46:37.483Z,13.38
2023-06-29T11:49:06.969Z,12.95
2023-06-29T11:51:40.075Z,14.20
2023-06-29T11:54:09.709Z,14.48
2023-06-29T11:56:39.967Z,13.18
2023-06-29T11:59:13.506Z,13.63
2023-06-29T12:01:45.001Z,12.65
2023-06-29T12:04:16.031Z,12.00
2023-06-29T12:06:52.044Z,11.93
2023-06-29T12:09:21.242Z,10.88
2023-06-29T12:11:57.557Z,13.40
2023-06-29T12:14:29.021Z,13.20
2023-06-29T12:19:34.851Z,12.88
2023-06-29T12:22:05.180Z,12.80
2023-06-29T12:24:34.286Z,14.10
2023-06-29T12:27:02.515Z,13.98
2023-06-29T12:29:30.360Z,12.95
2023-06-29T12:32:02.933Z,13.15
2023-06-29T12:34:32.713Z,13.52
2023-06-29T12:37:01.879Z,13.43
2023-06-29T12:39:29.898Z,11.32
2023-06-29T12:41:57.911Z,11.38
2023-06-29T12:44:27.553Z,11.32
2023-06-29T12:46:56.578Z,11.77
2023-06-29T12:49:27.873Z,11.30
2023-06-29T12:51:56.111Z,11.75
2023-06-29T12:54:24.371Z,10.48
2023-06-29T12:56:52.406Z,10.00
2023-06-29T12:59:20.293Z,10.77
2023-06-29T13:01:48.222Z,9.65
2023-06-29T13:04:16.135Z,11.52
2023-06-29T13:06:45.452Z,11.60
2023-06-29T13:09:13.306Z,10.57
2023-06-29T13:11:43.481Z,11.35
2023-06-29T13:14:11.494Z,11.25
2023-06-29T13:16:39.532Z,11.60
2023-06-29T13:19:07.613Z,10.98
2023-06-29T13:21:36.234Z,10.88
2023-06-29T13:24:06.302Z,10.75
2023-06-29T13:26:34.227Z,10.38
2023-06-29T13:29:02.077Z,10.32
2023-06-29T13:31:31.368Z,10.23
2023-06-29T13:33:59.458Z,10.10
2023-06-29T13:36:27.772Z,10.43
2023-06-29T13:38:55.805Z,10.73
2023-06-29T13:41:37.277Z,10.93
2023-06-29T13:44:06.351Z,11.02
2023-06-29T13:46:34.801Z,10.82
2023-06-29T13:49:04.067Z,11.10
2023-06-29T13:51:34.784Z,11.60
2023-06-29T13:54:05.693Z,11.18
2023-06-29T13:56:38.603Z,12.25
2023-06-29T13:59:09.694Z,11.68
2023-06-29T14:01:39.814Z,11.35
2023-06-29T14:04:09.675Z,11.77
2023-06-29T14:06:40.779Z,12.02
2023-06-29T14:09:11.624Z,11.90
2023-06-29T14:11:41.960Z,11.35
2023-06-29T14:14:10.150Z,12.02
2023-06-29T14:16:38.189Z,12.82
2023-06-29T14:19:06.297Z,11.60
2023-06-29T14:21:34.215Z,12.23
2023-06-29T14:24:02.005Z,12.38
2023-06-29T14:26:29.959Z,12.77
2023-06-29T14:28:59.146Z,12.70
2023-06-29T14:31:27.277Z,12.98
2023-06-29T14:33:55.812Z,12.27
2023-06-29T14:36:23.777Z,11.93
2023-06-29T14:38:53.001Z,12.65
2023-06-29T14:41:21.311Z,13.30
2023-06-29T14:43:49.339Z,12.30
2023-06-29T14:46:18.690Z,13.10
2023-06-29T14:48:46.673Z,13.10
2023-06-29T14:51:14.487Z,13.32
2023-06-29T14:53:42.387Z,12.45
2023-06-29T14:56:11.276Z,13.20
2023-06-29T14:58:40.293Z,13.00
2023-06-29T15:01:08.562Z,13.68
2023-06-29T15:03:39.551Z,13.52
2023-06-29T15:06:07.765Z,13.45
2023-06-29T15:08:35.635Z,14.05
2023-06-29T15:11:03.866Z,14.00
2023-06-29T15:13:31.672Z,13.32
2023-06-29T15:15:59.567Z,13.00
2023-06-29T15:18:27.534Z,13.52
2023-06-29T15:20:56.753Z,13.88
2023-06-29T15:23:24.619Z,14.05
2023-06-29T15:25:52.594Z,13.75
2023-06-29T15:28:21.363Z,12.68
2023-06-29T15:30:53.586Z,13.02
2023-06-29T15:33:22.105Z,13.68
2023-06-29T15:35:50.094Z,14.57
2023-06-29T15:38:19.754Z,13.60
2023-06-29T15:40:49.064Z,13.75
2023-06-29T15:43:17.017Z,14.70
2023-06-29T15:45:45.337Z,13.85
2023-06-29T15:48:15.573Z,14.15
2023-06-29T15:50:43.611Z,13.65
2023-06-29T15:53:12.126Z,13.63
2023-06-29T15:55:41.329Z,13.95
2023-06-29T15:58:09.217Z,14.00
2023-06-29T16:00:37.253Z,13.73
2023-06-29T16:03:05.468Z,14.27
2023-06-29T16:05:35.739Z,14.25
2023-06-29T16:08:04.448Z,13.45
2023-06-29T16:10:32.886Z,14.25
2023-06-29T16:13:02.079Z,13.30
2023-06-29T16:15:30.698Z,13.15
2023-06-29T16:17:58.793Z,12.35
2023-06-29T16:20:26.646Z,12.93
2023-06-29T16:22:54.560Z,12.20
2023-06-29T16:25:25.186Z,13.07
2023-06-29T16:27:53.516Z,13.05
2023-06-29T16:30:22.730Z,13.45
2023-06-29T16:32:50.653Z,12.68
2023-06-29T16:35:18.600Z,13.80
2023-06-29T16:37:47.594Z,15.05
2023-06-29T16:40:15.562Z,14.32
2023-06-29T16:42:43.539Z,14.63
2023-06-29T16:45:11.818Z,14.40
2023-06-29T16:47:41.071Z,14.85
2023-06-29T16:50:10.095Z,14.27
2023-06-29T16:52:38.057Z,14.38
2023-06-29T16:55:06.408Z,15.18
2023-06-29T16:57:52.811Z,14.82
2023-06-29T17:00:21.566Z,15.13
2023-06-29T17:02:50.974Z,15.68
2023-06-29T17:05:18.979Z,16.88
2023-06-29T17:07:46.883Z,18.33
2023-06-29T17:10:14.839Z,18.20
2023-06-29T17:12:42.774Z,20.20
2023-06-29T17:15:11.623Z,20.52
2023-06-29T17:17:39.684Z,20.55
2023-06-29T17:20:10.789Z,19.85
2023-06-29T17:22:38.690Z,17.00
2023-06-29T17:25:08.589Z,16.63
2023-06-29T17:27:36.530Z,16.75
2023-06-29T17:30:06.101Z,15.60
2023-06-29T17:32:34.167Z,16.70
2023-06-29T17:35:02.044Z,18.08
2023-06-29T17:37:31.270Z,17.98
2023-06-29T17:39:59.172Z,18.58
2023-06-29T17:42:27.148Z,19.90
2023-06-29T17:44:55.086Z,18.73
2023-06-29T17:47:23.033Z,18.67
2023-06-29T17:49:51.559Z,18.88
2023-06-29T17:52:19.499Z,18.60
2023-06-29T17:54:49.437Z,18.50
2023-06-29T17:57:17.708Z,18.92
2023-06-29T17:59:45.600Z,19.55
2023-06-29T18:02:13.641Z,19.75
2023-06-29T18:04:41.622Z,20.02
2023-06-29T18:07:10.418Z,21.02
2023-06-29T18:09:38.331Z,20.52
2023-06-29T18:12:09.177Z,21.40
2023-06-29T18:14:37.096Z,20.73
2023-06-29T18:17:05.879Z,21.13
2023-06-29T18:19:33.934Z,21.30
2023-06-29T18:22:01.852Z,21.27
2023-06-29T18:24:31.004Z,21.00
2023-06-29T18:27:00.645Z,20.88
2023-06-29T18:29:30.411Z,20.50
2023-06-29T18:31:58.614Z,21.17
2023-06-29T18:34:26.581Z,22.17
2023-06-29T18:36:56.185Z,22.67
2023-06-29T18:39:24.438Z,21.23
2023-06-29T18:41:52.321Z,22.30
2023-06-29T18:44:20.258Z,21.23
2023-06-29T18:47:09.121Z,21.88
2023-06-29T18:49:50.720Z,22.88
2023-06-29T18:52:21.047Z,21.58
2023-06-29T18:54:51.706Z,22.25
2023-06-29T18:57:19.705Z,20.83
2023-06-29T18:59:48.472Z,20.77
2023-06-29T19:02:17.970Z,21.40
2023-06-29T19:04:46.072Z,22.15
2023-06-29T19:07:16.108Z,21.25
2023-06-29T19:09:44.625Z,22.00
2023-06-29T19:12:13.577Z,22.70
2023-06-29T19:14:41.556Z,21.90
2023-06-29T19:17:09.905Z,22.48
2023-06-29T19:19:39.153Z,21.80
2023-06-29T19:22:08.450Z,22.23
2023-06-29T19:24:36.629Z,21.50
2023-06-29T19:27:06.889Z,22.30
2023-06-29T19:29:35.187Z,22.35
2023-06-29T19:32:03.556Z,22.65
2023-06-29T19:34:32.480Z,21.95
2023-06-29T19:37:03.973Z,22.33
2023-06-29T19:39:31.852Z,21.55
2023-06-29T19:41:59.730Z,21.50
2023-06-29T19:44:27.626Z,22.95
2023-06-29T19:46:55.508Z,21.98
2023-06-29T19:49:23.549Z,22.23
2023-06-29T19:51:58.033Z,23.13
2023-06-29T19:54:27.471Z,22.33
2023-06-29T19:56:55.670Z,23.45
2023-06-29T19:59:23.603Z,22.30
2023-06-29T20:01:52.423Z,23.67
2023-06-29T20:04:20.435Z,22.73
2023-06-29T20:06:48.529Z,22.63
2023-06-29T20:09:16.622Z,23.10
2023-06-29T20:11:45.795Z,21.70
2023-06-29T20:14:13.886Z,20.63
2023-06-29T20:16:41.815Z,21.25
2023-06-29T20:19:09.724Z,21.05
2023-06-29T20:21:37.890Z,22.05
2023-06-29T20:24:06.342Z,20.35
2023-06-29T20:26:34.316Z,19.95
2023-06-29T20:29:03.836Z,19.75
2023-06-29T20:31:31.819Z,18.05
2023-06-29T20:33:59.719Z,20.08
2023-06-29T20:36:27.660Z,19.40
2023-06-29T20:38:55.681Z,19.15
2023-06-29T20:41:24.499Z,19.15
2023-06-29T20:43:52.519Z,18.20
2023-06-29T20:46:21.686Z,18.23
2023-06-29T20:48:49.693Z,17.40
2023-06-29T20:51:18.611Z,16.98
2023-06-29T20:53:48.553Z,16.80
2023-06-29T20:56:16.631Z,14.18
2023-06-29T20:58:44.491Z,12.32
2023-06-29T21:01:12.429Z,11.57
2023-06-29T21:03:45.722Z,10.60
2023-06-29T21:06:14.191Z,10.43
2023-06-29T21:08:42.190Z,10.00
2023-06-29T21:11:10.816Z,10.48
2023-06-29T21:13:39.397Z,10.20
2023-06-29T21:16:08.755Z,9.90
2023-06-29T21:18:37.604Z,9.93
2023-06-29T21:21:07.901Z,8.93
2023-06-29T21:23:36.212Z,6.72
2023-06-29T21:26:04.766Z,6.50
2023-06-29T21:28:35.311Z,7.57
2023-06-29T21:31:05.640Z,6.25
2023-06-29T21:33:34.121Z,6.20
2023-06-29T21:36:02.862Z,6.78
2023-06-29T21:38:33.568Z,7.47
2023-06-29T21:41:01.544Z,6.25
2023-06-29T21:43:29.396Z,6.00
2023-06-29T21:45:57.365Z,5.40
2023-06-29T21:48:25.359Z,5.47
2023-06-29T21:50:53.596Z,5.68
2023-06-29T21:53:21.528Z,5.15
2023-06-29T21:55:50.758Z,4.20
2023-06-29T21:58:18.527Z,4.30
2023-06-29T22:00:46.790Z,3.60
2023-06-29T22:03:14.672Z,4.10
2023-06-29T22:05:42.915Z,3.65
2023-06-29T22:08:11.563Z,3.90
2023-06-29T22:10:39.521Z,3.78
2023-06-29T22:13:08.849Z,3.40
2023-06-29T22:15:38.253Z,3.33
2023-06-29T22:18:06.748Z,2.80
2023-06-29T22:20:34.818Z,2.72
2023-06-29T22:23:03.021Z,2.42
2023-06-29T22:25:30.915Z,2.50
2023-06-29T22:27:58.693Z,2.70
2023-06-29T22:30:27.907Z,2.72
2023-06-29T22:32:59.281Z,2.63
2023-06-29T22:35:27.529Z,2.58
2023-06-29T22:37:55.350Z,2.60
2023-06-29T22:40:23.415Z,2.45
2023-06-29T22:42:51.323Z,2.40
2023-06-29T22:45:19.326Z,2.50
2023-06-29T22:47:48.598Z,2.50
2023-06-29T22:50:16.840Z,2.60
2023-06-29T22:52:45.128Z,2.58
2023-06-29T22:55:13.012Z,2.10
2023-06-29T22:57:40.952Z,1.90
2023-06-29T23:00:10.473Z,2.40
2023-06-29T23:02:38.917Z,2.30
2023-06-29T23:05:09.149Z,2.15
2023-06-29T23:07:44.485Z,1.90
2023-06-29T23:10:13.686Z,2.20
2023-06-29T23:12:50.815Z,2.03
2023-06-29T23:15:18.752Z,2.55
2023-06-29T23:17:46.874Z,2.78
2023-06-29T23:20:16.396Z,2.53
2023-06-29T23:22:48.238Z,3.85
2023-06-29T23:25:17.875Z,3.42
2023-06-29T23:27:45.836Z,3.30
2023-06-29T23:30:16.527Z,2.90
2023-06-29T23:32:50.870Z,3.47
2023-06-29T23:35:21.565Z,3.58
2023-06-29T23:37:49.616Z,3.50
2023-06-29T23:40:17.776Z,3.10
2023-06-29T23:42:45.566Z,3.53
2023-06-29T23:45:13.840Z,3.50
2023-06-29T23:47:41.796Z,3.10
2023-06-29T23:50:14.077Z,3.03
2023-06-29T23:52:43.685Z,3.40
2023-06-29T23:55:15.498Z,2.90
2023-06-29T23:57:44.084Z,2.47
